Terminal Aerodrome Forecast
Issued by NWS Sioux Falls, SD

Home | Current Version | Previous Version | Text Only | Print | Product List | Glossary Off
Versions: 1 2 3 4 5 6 7 8 9 10 11 12 13 14

000
FTUS43 KFSD 230520
TAFFSD
TAF
KFSD 230520Z 2306/2406 21007KT P6SM SCT200
     FM230800 27007KT P6SM BKN110
     FM231000 29008KT P6SM BKN100 WS010/31040KT
     FM231300 30016G25KT P6SM FEW200
     FM231700 31026G38KT P6SM BKN090
     FM232300 32020G30KT P6SM SCT060
     FM240100 33012G22KT P6SM SCT060=

USA.gov is the U.S. government's official web portal to all federal, state and local government web resources and services.